Time;durP1;ratioP1;P1;durP2;ratioP2;P2;SDS_P1;SDS_P2;PMS_P1;PMS_P2;Temp;Humidity;BMP_temperature;BMP_pressure;BME280_temperature;BME280_humidity;BME280_pressure;Samples;Min_cycle;Max_cycle;Signal;HPM_P1;HPM_P2
2021/07/29 00:20:30;;;;;;;12.47;6.87;;;;;;;17.69;80.30;100074.05;21466423;80;99759;-83
2021/07/29 00:50:32;;;;;;;14.37;8.77;;;;;;;17.48;81.54;100064.80;21541367;81;99821;-83
2021/07/29 01:20:33;;;;;;;13.97;8.60;;;;;;;17.28;81.68;100064.02;21206975;80;99588;-81
2021/07/29 01:50:34;;;;;;;15.72;8.95;;;;;;;17.17;82.89;100050.19;20977347;82;99816;-82
2021/07/29 02:20:34;;;;;;;14.33;9.60;;;;;;;16.95;83.90;100035.17;20974425;82;99392;-82
2021/07/29 02:50:35;;;;;;;18.40;10.95;;;;;;;16.74;85.50;100039.77;20948306;82;99857;-82
2021/07/29 03:20:36;;;;;;;21.60;10.80;;;;;;;16.63;86.73;100053.85;21268785;81;99621;-84
2021/07/29 03:50:39;;;;;;;20.82;10.08;;;;;;;16.48;88.97;100062.89;21516530;81;99880;-84
2021/07/29 04:20:43;;;;;;;17.30;10.13;;;;;;;16.48;88.97;100062.89;21472924;80;99583;-83
2021/07/29 04:50:43;;;;;;;14.17;9.37;;;;;;;16.74;89.20;100073.88;21507873;81;100642;-83
2021/07/29 05:20:44;;;;;;;19.27;10.08;;;;;;;17.03;89.08;100083.84;21506630;80;99790;-82
2021/07/29 05:50:46;;;;;;;14.70;8.63;;;;;;;17.52;89.08;100043.84;21531936;81;99636;-80
2021/07/29 06:20:47;;;;;;;11.40;6.83;;;;;;;20.02;84.56;100065.09;21501630;81;99755;-80
2021/07/29 06:50:47;;;;;;;11.28;7.33;;;;;;;22.54;75.58;100051.23;21515804;81;99457;-80
2021/07/29 07:20:49;;;;;;;12.80;7.08;;;;;;;23.99;70.24;100071.37;21491624;79;99783;-80
2021/07/29 07:50:52;;;;;;;12.45;6.55;;;;;;;24.04;66.20;100029.31;21497173;81;99956;-79
2021/07/29 08:20:53;;;;;;;10.40;5.50;;;;;;;24.04;66.20;100029.31;21480360;80;99430;-79
2021/07/29 08:50:55;;;;;;;10.72;4.67;;;;;;;24.88;64.03;100025.56;21489138;80;99544;-79
2021/07/29 09:21:02;;;;;;;6.05;3.35;;;;;;;26.75;58.44;100038.34;21482743;81;99382;-80
2021/07/29 09:51:02;;;;;;;5.80;3.17;;;;;;;28.96;50.63;100023.03;21504287;80;99352;-78
2021/07/29 10:21:29;;;;;;;9.90;4.17;;;;;;;28.65;47.88;100009.83;21501807;81;99288;-78
2021/07/29 10:51:29;;;;;;;7.55;3.95;;;;;;;26.69;48.36;100034.03;21509455;81;100994;-80
2021/07/29 11:21:32;;;;;;;7.85;3.75;;;;;;;26.41;47.30;100011.73;21519608;79;99804;-79
2021/07/29 11:51:33;;;;;;;7.90;3.10;;;;;;;27.08;48.37;99994.25;21568980;80;99642;-81
2021/07/29 12:21:34;;;;;;;5.67;3.13;;;;;;;28.99;40.77;99980.30;21430013;80;99044;-78
2021/07/29 12:51:39;;;;;;;7.10;2.80;;;;;;;29.30;38.06;99964.48;21362907;81;99293;-77
2021/07/29 13:21:40;;;;;;;7.42;2.60;;;;;;;28.65;39.15;99957.44;21163117;81;99453;-78
2021/07/29 13:51:41;;;;;;;6.50;2.73;;;;;;;28.24;38.43;99940.70;20977957;83;99402;-79
2021/07/29 14:52:02;;;;;;;6.22;2.33;;;;;;;28.06;36.73;99903.59;21241603;81;99055;-79
2021/07/29 16:22:42;;;;;;;11.40;3.67;;;;;;;26.14;39.58;99890.87;21482244;81;99375;-80
2021/07/29 16:52:42;;;;;;;7.20;3.12;;;;;;;25.58;41.14;99881.56;21498051;81;99202;-77
2021/07/29 17:22:43;;;;;;;7.65;3.17;;;;;;;25.11;42.29;99880.45;21489857;81;99289;-78
2021/07/29 17:52:44;;;;;;;9.20;2.67;;;;;;;24.61;41.71;99881.67;21477421;81;99910;-79
2021/07/29 18:22:45;;;;;;;9.50;3.50;;;;;;;23.95;41.39;99889.45;21502195;81;99361;-79
2021/07/29 18:52:47;;;;;;;10.50;3.30;;;;;;;23.20;42.55;99898.64;21494746;81;99443;-80
2021/07/29 19:22:48;;;;;;;7.25;3.08;;;;;;;22.47;44.04;99916.14;21467270;81;99576;-80
2021/07/29 19:52:49;;;;;;;6.55;3.00;;;;;;;21.50;46.40;99939.53;21516970;81;99666;-79
2021/07/29 20:22:50;;;;;;;9.23;3.50;;;;;;;20.52;48.65;99960.14;21518535;80;99443;-79
2021/07/29 20:52:51;;;;;;;9.50;3.20;;;;;;;19.75;50.12;99948.89;21560505;80;99242;-79
2021/07/29 21:22:55;;;;;;;10.13;3.37;;;;;;;19.25;50.74;99955.14;21534057;80;99137;-79
2021/07/29 21:52:55;;;;;;;7.40;2.97;;;;;;;18.64;51.87;99934.45;21546866;80;99242;-79
2021/07/29 22:22:56;;;;;;;6.95;2.85;;;;;;;18.38;53.95;99962.70;21553276;80;99136;-79
2021/07/29 22:52:56;;;;;;;8.45;3.30;;;;;;;18.29;54.67;99979.23;21566873;80;99033;-80
2021/07/29 23:23:07;;;;;;;8.58;3.70;;;;;;;18.03;56.26;99988.09;21540356;80;99069;-80
2021/07/29 23:53:03;;;;;;;6.83;3.07;;;;;;;17.79;58.15;99988.13;21539790;80;99502;-80
